Madison Heights, VA (24572)

8:18 AM EDT on July 26, 2016 (GMT -0400)
Concord Turnpike | | Change Station

Elev 543 ft 37.40 °N, 79.11 °W | Updated 3 minutes ago

Clear
Clear
82.0 °F
Feels Like 87 °F
N
0.7
Wind Variable Wind from NNE
Gusts 2.2 mph

Today
High -- | Low -- °F
--% Chance of Precip.
Yesterday
High -- | Low -- °F
Precip. -- in
Pressure 30.00 in
Visibility 10.0 miles
Clouds Clear
Heat Index 87 °F
Dew Point 72 °F
Humidity 72%
Rainfall 0.00 in
Snow Depth Not available.
6:16 AM 8:29 PM
Waning Gibbous, 55% visible
METAR KLYH 261154Z 20004KT 10SM CLR 23/23 A3003 RMK AO2 SLP157 T02330228 10239 20217 51014
Pressure 30.00 in
Visibility 10.0 miles
Clouds Clear
Heat Index 87 °F
Dew Point 72 °F
Humidity 72%
Rainfall 0.00 in
Snow Depth Not available.
6:16 AM 8:29 PM
Waning Gibbous, 55% visible
METAR KLYH 261154Z 20004KT 10SM CLR 23/23 A3003 RMK AO2 SLP157 T02330228 10239 20217 51014

10-Day Weather Forecast

Almanac

Astronomy

Jul. 26, 2016 Rise Set
Actual Time
Civil Twilight
Nautical Twilight
Astronomical Twilight
Moon
Length of Visible Light
Length of Day
Tomorrow will be .
, % of the Moon is Illuminated

Today's Extremes

State Highs State Lows

Community

WunderPhotos

Upload Photos

1,927,580 photos uploaded!

WunderBlog® & News

Nearby

Air Quality

  Air Quality AQ Index Pollutant
Not available.

Snow Depth

Station Depth Elevation

Earthquake Activity

City Distance Mag. Time & Date
Minimum magnitude displayed is 2.5.

Coastal Water Temperatures

Place Temperature

Stations

Nearby Weather Stations

Station Location Temp. Windchill Dew Point Humidity Wind Precip. Elev Updated Type
                   

Watches & Warnings

There are currently no watches in effect.